Time;durP1;ratioP1;P1;durP2;ratioP2;P2;SDS_P1;SDS_P2;PMS_P1;PMS_P2;Temp;Humidity;BMP_temperature;BMP_pressure;BME280_temperature;BME280_humidity;BME280_pressure;Samples;Min_cycle;Max_cycle;Signal;HPM_P1;HPM_P2
2023/07/08 00:00:28;;;;;;;12.30;4.53;;;20.20;99.90;;;;;;4977038;28;20094;-78
2023/07/08 00:02:55;;;;;;;11.25;4.40;;;20.20;99.90;;;;;;4987679;28;20113;-78
2023/07/08 00:05:21;;;;;;;16.90;5.03;;;20.20;99.90;;;;;;4975539;28;20046;-78
2023/07/08 00:07:48;;;;;;;15.95;5.97;;;20.20;99.90;;;;;;4976857;28;20074;-79
2023/07/08 00:10:15;;;;;;;17.10;6.47;;;20.20;99.90;;;;;;4977150;28;20050;-78
2023/07/08 00:12:42;;;;;;;15.52;5.88;;;20.10;99.90;;;;;;4975179;28;20169;-77
2023/07/08 00:15:10;;;;;;;14.38;6.22;;;20.10;99.90;;;;;;4983236;28;20085;-78
2023/07/08 00:17:37;;;;;;;21.05;5.95;;;20.10;99.90;;;;;;4994615;28;20098;-77
2023/07/08 00:20:04;;;;;;;12.18;4.85;;;20.10;99.90;;;;;;4995109;28;20054;-77
2023/07/08 00:22:34;;;;;;;12.48;4.70;;;20.10;99.90;;;;;;4995598;28;20042;-77
2023/07/08 00:25:01;;;;;;;15.10;4.47;;;20.10;99.90;;;;;;4995150;28;20065;-78
2023/07/08 00:27:28;;;;;;;11.48;4.40;;;20.10;99.90;;;;;;4995555;28;20506;-76
2023/07/08 00:29:54;;;;;;;10.15;4.28;;;20.10;99.90;;;;;;4995501;28;20042;-76
2023/07/08 00:32:21;;;;;;;13.43;4.82;;;20.10;99.90;;;;;;4994786;28;20046;-78
2023/07/08 00:34:48;;;;;;;11.20;4.63;;;20.00;99.90;;;;;;4995879;28;20117;-76
2023/07/08 00:37:15;;;;;;;12.05;5.35;;;20.00;99.90;;;;;;4995980;28;20121;-78
2023/07/08 00:39:41;;;;;;;19.25;5.15;;;20.00;99.90;;;;;;4993353;28;20051;-80
2023/07/08 00:42:09;;;;;;;16.27;5.28;;;20.00;99.90;;;;;;4978153;28;20134;-80
2023/07/08 00:44:35;;;;;;;15.05;4.70;;;20.00;99.90;;;;;;4977395;28;20046;-79
2023/07/08 00:47:03;;;;;;;12.73;4.70;;;20.00;99.90;;;;;;4994859;28;20096;-79
2023/07/08 00:49:30;;;;;;;12.90;4.18;;;20.00;99.90;;;;;;4995423;28;20073;-79
2023/07/08 00:51:57;;;;;;;13.18;4.75;;;20.00;99.90;;;;;;4993885;28;20050;-78
2023/07/08 00:54:24;;;;;;;12.00;4.22;;;20.00;99.90;;;;;;4994413;28;20457;-80
2023/07/08 00:56:52;;;;;;;10.50;4.15;;;20.00;99.90;;;;;;4995666;28;20042;-79
2023/07/08 00:59:19;;;;;;;10.68;4.35;;;20.00;99.90;;;;;;4994701;28;20108;-78
2023/07/08 01:01:46;;;;;;;14.77;4.57;;;20.00;99.90;;;;;;4995292;28;20085;-79
2023/07/08 01:04:13;;;;;;;10.38;4.07;;;20.00;99.90;;;;;;4994890;28;20054;-80
2023/07/08 01:06:40;;;;;;;10.68;4.35;;;20.00;99.90;;;;;;5007036;28;20065;-80
2023/07/08 01:09:07;;;;;;;10.23;4.45;;;20.00;99.90;;;;;;4998096;28;20050;-79
2023/07/08 01:11:34;;;;;;;12.45;4.70;;;20.00;99.90;;;;;;5018044;28;20119;-79
2023/07/08 01:14:03;;;;;;;12.02;4.78;;;19.90;99.90;;;;;;5018867;28;20045;-78
2023/07/08 01:16:33;;;;;;;18.83;4.80;;;19.90;99.90;;;;;;5001538;28;20042;-78
2023/07/08 01:19:00;;;;;;;9.90;4.35;;;19.80;99.90;;;;;;5000871;28;20042;-78
2023/07/08 01:21:28;;;;;;;11.32;4.45;;;19.80;99.90;;;;;;5001422;28;20045;-79
2023/07/08 01:23:55;;;;;;;11.02;4.95;;;19.80;99.90;;;;;;5018884;28;20042;-78
2023/07/08 01:26:22;;;;;;;14.10;4.63;;;19.80;99.90;;;;;;5018071;28;20080;-79
2023/07/08 01:28:49;;;;;;;12.50;4.25;;;19.70;99.90;;;;;;5001046;28;20432;-80
2023/07/08 01:31:16;;;;;;;11.90;4.95;;;19.70;99.90;;;;;;5017539;28;20073;-79
2023/07/08 01:33:43;;;;;;;9.85;4.68;;;19.70;99.90;;;;;;5001744;28;20056;-79
2023/07/08 01:36:09;;;;;;;10.32;4.60;;;19.70;99.90;;;;;;5001067;28;20038;-80
2023/07/08 01:38:36;;;;;;;11.70;4.93;;;19.60;99.90;;;;;;4999917;28;20045;-78
2023/07/08 01:41:04;;;;;;;11.82;4.82;;;19.60;99.90;;;;;;5018707;28;20044;-78
2023/07/08 01:43:31;;;;;;;12.48;4.53;;;19.60;99.90;;;;;;5000909;28;20108;-79
2023/07/08 01:45:57;;;;;;;11.98;4.60;;;19.60;99.90;;;;;;4999953;28;20046;-77
2023/07/08 01:48:24;;;;;;;11.77;4.80;;;19.60;99.90;;;;;;5000958;28;20139;-78
2023/07/08 01:50:51;;;;;;;10.93;4.05;;;19.60;99.90;;;;;;5001394;28;20096;-79
2023/07/08 01:53:17;;;;;;;10.52;4.10;;;19.60;99.90;;;;;;5017171;28;20034;-78
2023/07/08 01:55:44;;;;;;;15.80;4.88;;;19.60;99.90;;;;;;5018353;28;20065;-78
2023/07/08 01:58:11;;;;;;;11.93;4.40;;;19.60;99.90;;;;;;4999825;28;20046;-77
2023/07/08 02:00:38;;;;;;;11.50;4.07;;;19.50;99.90;;;;;;4998453;28;20074;-77
2023/07/08 02:03:04;;;;;;;11.00;4.60;;;19.50;99.90;;;;;;4997394;28;20046;-79
2023/07/08 02:05:33;;;;;;;12.57;4.47;;;19.50;99.90;;;;;;4996405;28;20054;-78
2023/07/08 02:08:01;;;;;;;10.95;4.47;;;19.50;99.90;;;;;;4980947;28;20054;-78
2023/07/08 02:10:27;;;;;;;11.60;4.25;;;19.50;99.90;;;;;;4997959;28;20042;-78
2023/07/08 02:12:54;;;;;;;14.48;4.63;;;19.50;99.90;;;;;;4997421;28;20038;-78
2023/07/08 02:15:22;;;;;;;10.32;4.13;;;19.50;99.90;;;;;;4997670;28;20108;-78
2023/07/08 02:17:50;;;;;;;10.95;4.30;;;19.40;99.90;;;;;;4997645;28;20046;-78
2023/07/08 02:20:17;;;;;;;14.40;4.60;;;19.50;99.90;;;;;;4997576;28;20137;-78
2023/07/08 02:22:43;;;;;;;11.77;4.25;;;19.50;99.90;;;;;;4980141;28;20492;-77
2023/07/08 02:25:11;;;;;;;13.43;4.72;;;19.50;99.90;;;;;;4996074;28;20112;-79
2023/07/08 02:27:38;;;;;;;11.43;4.07;;;19.40;99.90;;;;;;4997021;28;20471;-80
2023/07/08 02:30:05;;;;;;;14.68;4.47;;;19.40;99.90;;;;;;4997409;28;20045;-80
2023/07/08 02:32:35;;;;;;;10.75;4.65;;;19.40;99.90;;;;;;4997401;28;20042;-78
2023/07/08 02:37:32;;;;;;;10.63;4.30;;;19.50;99.90;;;;;;4997779;28;20116;-78
2023/07/08 02:39:59;;;;;;;10.60;4.07;;;19.50;99.90;;;;;;4996073;28;20104;-80
2023/07/08 02:42:25;;;;;;;13.30;4.13;;;19.50;99.90;;;;;;4997850;28;20051;-80
2023/07/08 02:44:52;;;;;;;10.27;3.63;;;19.60;99.90;;;;;;4995733;28;20076;-77
2023/07/08 02:47:20;;;;;;;10.82;4.22;;;19.60;99.90;;;;;;4997191;28;20054;-81
2023/07/08 02:49:47;;;;;;;11.38;4.45;;;19.60;99.90;;;;;;4996500;28;20077;-77
2023/07/08 02:52:13;;;;;;;11.00;4.95;;;19.60;99.90;;;;;;4996736;28;20096;-79
2023/07/08 02:54:40;;;;;;;12.05;4.07;;;19.70;99.90;;;;;;4997339;28;20465;-80
2023/07/08 02:57:08;;;;;;;13.35;4.13;;;19.70;99.90;;;;;;4996243;28;20049;-78
2023/07/08 02:59:35;;;;;;;9.32;4.05;;;19.80;99.90;;;;;;4996640;28;20493;-78
2023/07/08 03:02:01;;;;;;;11.77;4.78;;;19.80;99.90;;;;;;4996337;28;20470;-79
2023/07/08 03:04:29;;;;;;;9.40;4.05;;;20.00;99.90;;;;;;4996503;28;20117;-80
2023/07/08 03:06:56;;;;;;;11.48;3.75;;;20.20;99.90;;;;;;5012401;28;20416;-77
2023/07/08 03:09:23;;;;;;;10.45;4.25;;;20.30;99.90;;;;;;5016533;28;20088;-78
2023/07/08 03:11:50;;;;;;;13.77;4.35;;;20.50;99.90;;;;;;5007311;28;20061;-79
2023/07/08 03:14:16;;;;;;;10.55;4.05;;;20.60;99.90;;;;;;5015751;28;20457;-79
2023/07/08 03:16:44;;;;;;;12.77;3.85;;;20.80;99.90;;;;;;5015710;28;20064;-78
2023/07/08 03:19:14;;;;;;;10.60;3.92;;;20.80;99.90;;;;;;5015948;28;20049;-77
2023/07/08 03:21:42;;;;;;;12.38;3.85;;;20.80;99.90;;;;;;5015838;28;20054;-77
2023/07/08 03:24:10;;;;;;;20.73;4.25;;;20.80;99.90;;;;;;5016197;28;20053;-78
2023/07/08 03:26:42;;;;;;;9.27;3.75;;;20.90;99.90;;;;;;5014594;28;20045;-78
2023/07/08 03:29:10;;;;;;;10.50;3.97;;;20.90;99.90;;;;;;5015502;28;20056;-79
2023/07/08 03:31:37;;;;;;;10.95;3.75;;;20.90;99.90;;;;;;5014084;28;20042;-78
2023/07/08 03:34:04;;;;;;;9.30;3.95;;;20.90;99.90;;;;;;5015211;28;20112;-79
2023/07/08 03:36:31;;;;;;;10.43;4.05;;;21.00;99.90;;;;;;5015704;28;20049;-78
2023/07/08 03:38:57;;;;;;;10.80;3.75;;;21.10;99.90;;;;;;5014206;28;20116;-78
2023/07/08 03:41:24;;;;;;;10.60;4.25;;;21.10;99.90;;;;;;5015168;28;20046;-77
2023/07/08 03:43:51;;;;;;;11.07;4.20;;;21.10;99.90;;;;;;5015112;28;20056;-78
2023/07/08 03:46:20;;;;;;;13.32;4.45;;;21.10;99.90;;;;;;5014767;28;20048;-77
2023/07/08 03:48:47;;;;;;;14.32;4.40;;;21.10;99.90;;;;;;5015639;28;20120;-78
2023/07/08 03:51:14;;;;;;;10.00;3.92;;;21.10;99.90;;;;;;5014433;28;20045;-79
2023/07/08 03:53:41;;;;;;;12.05;3.88;;;21.10;99.90;;;;;;5014859;28;20049;-78
2023/07/08 03:56:09;;;;;;;11.00;4.35;;;21.10;99.90;;;;;;5015267;28;20472;-79
2023/07/08 03:58:36;;;;;;;12.50;3.42;;;21.10;99.90;;;;;;5014869;28;20096;-78
2023/07/08 04:01:03;;;;;;;12.68;4.60;;;21.10;99.90;;;;;;5015120;28;20055;-78
2023/07/08 04:03:30;;;;;;;10.80;3.70;;;21.00;99.90;;;;;;5015508;28;20073;-78
2023/07/08 04:05:58;;;;;;;12.90;4.13;;;21.00;99.90;;;;;;5007795;28;20073;-78
2023/07/08 04:08:25;;;;;;;11.68;4.20;;;21.00;99.90;;;;;;4994778;28;20050;-78
2023/07/08 04:10:52;;;;;;;12.68;4.40;;;21.00;99.90;;;;;;4995830;28;20133;-78
2023/07/08 04:13:19;;;;;;;12.10;3.78;;;21.00;99.90;;;;;;4994978;28;20038;-78
2023/07/08 04:15:46;;;;;;;12.40;4.43;;;21.00;99.90;;;;;;4996087;28;20069;-78
2023/07/08 04:18:12;;;;;;;8.38;3.47;;;20.90;99.90;;;;;;4994990;28;20039;-78
2023/07/08 04:20:39;;;;;;;10.95;4.03;;;21.00;99.90;;;;;;4995893;28;20076;-77
2023/07/08 04:23:06;;;;;;;13.55;3.78;;;20.90;99.90;;;;;;4996020;28;20357;-77
2023/07/08 04:25:34;;;;;;;11.70;4.00;;;20.90;99.90;;;;;;4995350;28;20062;-78
2023/07/08 04:28:00;;;;;;;15.45;3.80;;;20.90;99.90;;;;;;4995630;28;20049;-78
2023/07/08 04:30:27;;;;;;;16.63;4.13;;;20.90;99.90;;;;;;4996293;28;20137;-79
2023/07/08 04:32:55;;;;;;;8.73;3.63;;;20.80;99.90;;;;;;4994749;28;20468;-78
2023/07/08 04:35:24;;;;;;;12.40;4.18;;;20.80;99.90;;;;;;4995615;28;20117;-78
2023/07/08 04:37:51;;;;;;;12.30;3.72;;;20.80;99.90;;;;;;4994443;28;20047;-78
2023/07/08 04:40:18;;;;;;;8.70;3.53;;;20.80;99.90;;;;;;4995461;28;20125;-79
2023/07/08 04:42:47;;;;;;;10.88;3.90;;;20.80;99.90;;;;;;4995397;28;20134;-78
2023/07/08 04:45:16;;;;;;;15.65;3.50;;;20.80;99.90;;;;;;4994337;28;20120;-78
2023/07/08 04:47:43;;;;;;;16.60;4.95;;;20.80;99.90;;;;;;4995346;28;20457;-78
2023/07/08 04:50:10;;;;;;;9.25;3.53;;;20.90;99.90;;;;;;4995663;28;20046;-78
2023/07/08 04:52:37;;;;;;;9.73;3.78;;;20.90;99.90;;;;;;4978026;28;20520;-79
2023/07/08 04:55:04;;;;;;;14.40;4.35;;;21.00;99.90;;;;;;4995862;28;20121;-78
2023/07/08 04:57:31;;;;;;;8.75;3.20;;;21.00;99.90;;;;;;4995584;28;20093;-78
2023/07/08 04:59:58;;;;;;;11.30;4.30;;;21.10;99.90;;;;;;4995001;28;20409;-77
2023/07/08 05:02:24;;;;;;;11.55;3.80;;;21.10;99.90;;;;;;4995308;28;20046;-78
2023/07/08 05:04:51;;;;;;;9.52;3.47;;;21.20;99.90;;;;;;4994445;28;20473;-77
2023/07/08 05:07:18;;;;;;;9.27;3.60;;;21.30;99.90;;;;;;5013446;28;20038;-77
2023/07/08 05:09:45;;;;;;;8.27;3.78;;;21.40;99.90;;;;;;5014787;28;20072;-77
2023/07/08 05:12:12;;;;;;;11.82;3.95;;;21.50;99.90;;;;;;5013789;28;20069;-79
2023/07/08 05:14:38;;;;;;;11.52;3.70;;;21.50;99.90;;;;;;5014727;28;20042;-78
2023/07/08 05:17:06;;;;;;;9.90;3.92;;;21.60;99.90;;;;;;5014657;28;20049;-79
2023/07/08 05:19:33;;;;;;;10.05;3.72;;;21.70;99.90;;;;;;5014342;28;20386;-78
2023/07/08 05:21:59;;;;;;;10.38;4.00;;;21.70;99.90;;;;;;5014984;28;20472;-78
2023/07/08 05:24:26;;;;;;;16.55;3.30;;;21.80;99.90;;;;;;5014560;28;20177;-77
2023/07/08 05:26:55;;;;;;;10.15;3.45;;;21.80;99.90;;;;;;5014278;28;20046;-79
2023/07/08 05:29:22;;;;;;;9.27;3.70;;;21.90;99.90;;;;;;4997964;28;20368;-78
2023/07/08 05:31:49;;;;;;;11.32;4.35;;;22.00;99.90;;;;;;5013873;28;20049;-79
2023/07/08 05:34:15;;;;;;;13.13;4.38;;;22.10;99.90;;;;;;5015114;28;20121;-78
2023/07/08 05:36:42;;;;;;;15.50;3.72;;;22.10;99.90;;;;;;5014738;28;20042;-79
2023/07/08 05:39:09;;;;;;;10.77;4.03;;;22.20;99.90;;;;;;5013731;28;20038;-79
2023/07/08 05:41:36;;;;;;;10.70;4.22;;;22.20;99.90;;;;;;5014556;28;20112;-78
2023/07/08 05:44:02;;;;;;;13.15;3.65;;;22.30;99.90;;;;;;5014517;28;20046;-79
2023/07/08 05:46:29;;;;;;;11.93;3.55;;;22.40;99.90;;;;;;5013731;28;20046;-78
2023/07/08 05:48:56;;;;;;;10.95;4.25;;;22.50;99.90;;;;;;5014365;28;20034;-77
2023/07/08 05:51:27;;;;;;;11.00;3.80;;;22.60;99.90;;;;;;5013967;28;20042;-79
2023/07/08 05:53:53;;;;;;;10.50;4.03;;;22.70;99.90;;;;;;5008575;28;20038;-79
2023/07/08 05:56:22;;;;;;;9.15;3.75;;;22.80;99.90;;;;;;4997314;28;20101;-79
2023/07/08 05:58:49;;;;;;;11.18;3.40;;;22.90;99.90;;;;;;4997385;28;20066;-77
2023/07/08 06:01:16;;;;;;;10.35;4.07;;;23.00;99.90;;;;;;4989604;28;20042;-78
2023/07/08 06:03:42;;;;;;;8.48;3.67;;;23.20;99.90;;;;;;4962181;28;20070;-77
2023/07/08 06:06:10;;;;;;;11.75;5.00;;;23.20;99.90;;;;;;4986919;28;20042;-78
2023/07/08 06:08:37;;;;;;;11.35;3.92;;;23.40;99.90;;;;;;4979636;28;20121;-78
2023/07/08 06:11:04;;;;;;;10.32;3.67;;;23.50;99.90;;;;;;4977961;28;20054;-77
2023/07/08 06:13:31;;;;;;;12.68;4.18;;;23.50;99.90;;;;;;4979066;28;20402;-77
2023/07/08 06:15:58;;;;;;;10.48;3.67;;;23.70;99.90;;;;;;4978847;28;20050;-79
2023/07/08 06:18:24;;;;;;;9.50;3.67;;;23.80;99.90;;;;;;4977713;28;20051;-79
2023/07/08 06:20:51;;;;;;;11.82;4.00;;;23.90;99.90;;;;;;4978541;28;20070;-79
2023/07/08 06:23:18;;;;;;;10.63;4.50;;;24.10;99.90;;;;;;4978688;28;20381;-78
2023/07/08 06:25:45;;;;;;;8.85;3.40;;;24.20;99.90;;;;;;4977923;28;20418;-78
2023/07/08 06:28:11;;;;;;;14.48;4.80;;;24.10;99.90;;;;;;4978087;28;20051;-79
2023/07/08 06:30:38;;;;;;;8.48;3.63;;;24.20;99.90;;;;;;4978215;28;20085;-78
2023/07/08 06:33:05;;;;;;;9.32;3.60;;;24.30;99.90;;;;;;4977706;28;20050;-78
2023/07/08 06:38:17;;;;;;;11.82;3.92;;;24.50;99.90;;;;;;4976454;28;20458;-78
2023/07/08 06:40:44;;;;;;;9.35;3.83;;;24.60;99.90;;;;;;4978333;28;20125;-79
2023/07/08 06:43:10;;;;;;;10.55;3.85;;;24.50;99.90;;;;;;4978042;28;20046;-78
2023/07/08 06:45:50;;;;;;;9.23;3.88;;;24.60;99.90;;;;;;4960057;28;20046;-79
2023/07/08 06:48:16;;;;;;;11.38;4.03;;;24.60;99.90;;;;;;4978321;28;20047;-79
2023/07/08 06:50:43;;;;;;;11.57;5.05;;;24.50;99.90;;;;;;4977747;28;20442;-79
2023/07/08 06:53:10;;;;;;;10.23;3.72;;;24.60;99.90;;;;;;4988589;28;20042;-78
2023/07/08 06:55:36;;;;;;;11.18;3.92;;;24.70;99.90;;;;;;4997701;28;20038;-78
2023/07/08 06:58:03;;;;;;;11.40;4.43;;;24.90;99.90;;;;;;4996613;28;20073;-79
2023/07/08 07:00:30;;;;;;;13.82;4.22;;;25.00;99.90;;;;;;4997649;28;20042;-79
2023/07/08 07:02:56;;;;;;;11.57;4.70;;;25.10;99.90;;;;;;4992524;28;20043;-78
2023/07/08 07:05:23;;;;;;;13.82;4.50;;;25.20;99.90;;;;;;4986598;28;20119;-79
2023/07/08 07:07:52;;;;;;;14.60;4.95;;;25.30;99.90;;;;;;4998812;28;20448;-78
2023/07/08 07:10:19;;;;;;;10.95;4.13;;;25.40;99.90;;;;;;5017248;28;20038;-80
2023/07/08 07:12:45;;;;;;;9.35;4.57;;;25.50;99.90;;;;;;4996256;28;20066;-79
2023/07/08 07:15:13;;;;;;;11.43;4.80;;;25.60;99.90;;;;;;4996949;28;20129;-79
2023/07/08 07:17:40;;;;;;;12.30;5.22;;;25.70;99.90;;;;;;4996602;28;20050;-80
2023/07/08 07:20:07;;;;;;;10.93;4.40;;;25.80;99.90;;;;;;4997189;28;20046;-79
2023/07/08 07:22:33;;;;;;;11.65;4.53;;;25.80;99.90;;;;;;4996996;28;20046;-79
2023/07/08 07:25:02;;;;;;;11.10;4.28;;;25.80;99.90;;;;;;4996394;28;20050;-79
2023/07/08 07:27:29;;;;;;;13.77;5.00;;;25.80;99.90;;;;;;4998302;28;20480;-80
2023/07/08 07:29:56;;;;;;;10.98;4.25;;;25.90;99.90;;;;;;4997355;28;20480;-78
2023/07/08 07:32:22;;;;;;;9.75;4.30;;;26.10;99.90;;;;;;4979268;28;20050;-78
2023/07/08 07:34:49;;;;;;;12.10;4.47;;;26.20;99.90;;;;;;4977122;28;20047;-77
2023/07/08 07:37:16;;;;;;;10.73;4.50;;;26.40;99.90;;;;;;4976462;28;20050;-81
2023/07/08 07:39:42;;;;;;;11.50;4.32;;;26.30;99.90;;;;;;4975167;28;20138;-79
2023/07/08 07:42:09;;;;;;;8.93;4.43;;;26.20;99.90;;;;;;4977114;28;20071;-79
2023/07/08 07:44:36;;;;;;;10.60;4.13;;;26.20;99.90;;;;;;4976114;28;20133;-81
2023/07/08 07:47:04;;;;;;;12.63;4.85;;;26.10;99.90;;;;;;4976785;28;20087;-80
2023/07/08 07:49:31;;;;;;;10.57;4.40;;;26.10;99.90;;;;;;4977278;28;20057;-78
2023/07/08 07:51:57;;;;;;;9.43;3.88;;;26.10;99.90;;;;;;4976218;28;20077;-82
2023/07/08 07:54:24;;;;;;;9.88;4.55;;;26.10;99.90;;;;;;4992296;28;20074;-78
2023/07/08 07:56:52;;;;;;;10.48;4.63;;;26.20;99.90;;;;;;4976885;28;20096;-79
2023/07/08 07:59:19;;;;;;;9.50;4.30;;;26.40;99.90;;;;;;4976429;28;20078;-79
2023/07/08 08:01:45;;;;;;;12.90;4.28;;;26.50;99.90;;;;;;4976817;28;20046;-78
2023/07/08 08:04:12;;;;;;;9.82;4.38;;;26.60;99.90;;;;;;4976941;28;20057;-79
2023/07/08 08:06:39;;;;;;;9.90;5.10;;;26.50;99.90;;;;;;4962928;28;20047;-78
2023/07/08 08:09:06;;;;;;;12.88;4.60;;;26.40;99.90;;;;;;4957294;28;20078;-78
2023/07/08 08:11:33;;;;;;;11.35;4.55;;;26.30;99.90;;;;;;4966038;28;20549;-79
2023/07/08 08:14:00;;;;;;;10.10;4.35;;;26.30;99.90;;;;;;4975621;28;20073;-79
2023/07/08 08:16:27;;;;;;;12.15;3.92;;;26.20;99.90;;;;;;4976641;28;20067;-79
2023/07/08 08:18:54;;;;;;;13.95;5.57;;;26.20;99.90;;;;;;4992419;28;20053;-79
2023/07/08 08:21:21;;;;;;;7.40;3.95;;;26.10;99.90;;;;;;4995806;28;20077;-79
2023/07/08 08:23:48;;;;;;;9.20;4.10;;;26.10;99.90;;;;;;4996411;28;20404;-78
2023/07/08 08:26:15;;;;;;;14.13;4.53;;;26.00;99.90;;;;;;4994956;28;20134;-78
2023/07/08 08:28:41;;;;;;;9.70;4.35;;;25.80;99.90;;;;;;4993785;28;20117;-79
2023/07/08 08:31:08;;;;;;;11.07;4.53;;;25.70;99.90;;;;;;4994812;28;20049;-79
2023/07/08 08:33:35;;;;;;;12.15;4.38;;;25.70;99.90;;;;;;4995636;28;20050;-79
2023/07/08 08:36:04;;;;;;;10.55;4.70;;;25.70;99.90;;;;;;4995953;28;20100;-79
2023/07/08 08:38:31;;;;;;;9.73;4.15;;;25.70;99.90;;;;;;4994524;28;20126;-79
2023/07/08 08:40:57;;;;;;;11.52;4.22;;;25.60;99.90;;;;;;4995547;28;20053;-81
2023/07/08 08:43:24;;;;;;;14.43;4.68;;;25.40;99.90;;;;;;4996122;28;20536;-81
2023/07/08 08:48:37;;;;;;;9.27;4.13;;;25.50;99.90;;;;;;4995240;28;20057;-78
2023/07/08 08:51:04;;;;;;;10.27;4.93;;;25.40;99.90;;;;;;4994391;28;20098;-81
2023/07/08 08:53:31;;;;;;;11.85;5.03;;;25.30;99.90;;;;;;4995397;28;20042;-77
2023/07/08 08:55:58;;;;;;;12.70;4.18;;;25.40;99.90;;;;;;4991602;28;20062;-79
2023/07/08 08:58:25;;;;;;;9.63;4.15;;;25.30;99.90;;;;;;4977337;28;20065;-81
2023/07/08 09:00:54;;;;;;;11.18;4.10;;;25.20;99.90;;;;;;4995219;28;20077;-80
2023/07/08 09:03:21;;;;;;;9.82;4.70;;;25.20;99.90;;;;;;4995288;28;20524;-79
2023/07/08 09:05:50;;;;;;;10.88;4.88;;;25.30;99.90;;;;;;4994445;28;20552;-80
2023/07/08 09:08:16;;;;;;;9.77;5.13;;;25.40;99.90;;;;;;4995112;28;20108;-78
2023/07/08 09:10:43;;;;;;;11.90;4.75;;;25.60;99.90;;;;;;4995244;28;20466;-78
2023/07/08 09:13:10;;;;;;;8.52;4.22;;;25.60;99.90;;;;;;4994384;28;20043;-81
2023/07/08 09:18:22;;;;;;;10.00;5.07;;;26.20;99.90;;;;;;4994393;28;20058;-79
2023/07/08 09:20:49;;;;;;;18.08;6.47;;;26.50;99.90;;;;;;4995286;28;20078;-77
2023/07/08 09:23:18;;;;;;;9.90;4.93;;;26.50;99.90;;;;;;4995084;28;20042;-80
2023/07/08 09:25:46;;;;;;;10.88;5.07;;;26.50;99.90;;;;;;4994554;28;20049;-81
2023/07/08 09:28:12;;;;;;;14.27;6.22;;;26.40;99.90;;;;;;4977983;28;20078;-77
2023/07/08 09:30:42;;;;;;;13.20;5.05;;;26.60;99.90;;;;;;4997054;28;20093;-81
2023/07/08 09:33:08;;;;;;;12.80;5.10;;;26.70;99.90;;;;;;4998297;28;20349;-81
2023/07/08 09:35:35;;;;;;;16.48;5.32;;;26.90;99.90;;;;;;4998817;28;20445;-79
2023/07/08 09:38:02;;;;;;;13.73;5.03;;;27.10;99.90;;;;;;4997822;28;20428;-81
2023/07/08 09:40:29;;;;;;;9.75;4.55;;;27.10;99.90;;;;;;4996787;28;20121;-78
2023/07/08 09:42:55;;;;;;;8.48;4.35;;;27.20;99.90;;;;;;4999239;28;20049;-80
2023/07/08 09:45:23;;;;;;;9.95;4.57;;;27.40;99.90;;;;;;4998062;28;20121;-80
2023/07/08 09:47:50;;;;;;;8.85;4.93;;;27.50;99.90;;;;;;4998368;28;20046;-79
2023/07/08 09:50:18;;;;;;;11.95;5.45;;;27.60;99.90;;;;;;4998975;28;20121;-81
2023/07/08 09:52:44;;;;;;;11.70;5.07;;;27.70;99.90;;;;;;4995890;28;20054;-79
2023/07/08 09:55:12;;;;;;;10.75;4.97;;;27.80;99.90;;;;;;4979587;28;20078;-78
2023/07/08 09:57:39;;;;;;;10.18;4.55;;;27.70;99.90;;;;;;4979034;28;20524;-78
2023/07/08 10:00:06;;;;;;;9.70;4.50;;;27.70;99.90;;;;;;4979192;28;20055;-80
2023/07/08 10:02:34;;;;;;;13.85;4.78;;;27.80;99.90;;;;;;4978869;28;20053;-81
2023/07/08 10:05:01;;;;;;;11.52;4.50;;;27.80;99.90;;;;;;4978515;28;20050;-81
2023/07/08 10:07:28;;;;;;;11.80;4.78;;;27.70;99.90;;;;;;4997946;28;20085;-79
2023/07/08 10:09:55;;;;;;;8.60;4.03;;;27.70;99.90;;;;;;4981485;28;20125;-81
2023/07/08 10:12:22;;;;;;;11.07;4.60;;;27.80;99.90;;;;;;4997201;28;20054;-81
2023/07/08 10:14:49;;;;;;;11.32;4.25;;;28.20;99.90;;;;;;4980933;28;20050;-80
2023/07/08 10:17:16;;;;;;;10.05;4.20;;;28.50;99.90;;;;;;4998337;28;20545;-78
2023/07/08 10:19:42;;;;;;;8.10;3.95;;;28.60;99.90;;;;;;4997394;28;20050;-79
2023/07/08 10:22:10;;;;;;;8.73;4.20;;;28.90;99.90;;;;;;4998630;28;20038;-81
2023/07/08 10:24:37;;;;;;;13.48;4.00;;;28.90;99.90;;;;;;4997639;28;20130;-79
2023/07/08 10:29:49;;;;;;;9.35;4.22;;;29.00;99.90;;;;;;4998408;28;20104;-79
2023/07/08 10:32:16;;;;;;;8.65;4.00;;;28.90;99.90;;;;;;4997344;28;20042;-81
2023/07/08 10:34:43;;;;;;;7.90;4.00;;;28.80;99.90;;;;;;4997979;28;20116;-79
2023/07/08 10:37:09;;;;;;;9.57;4.30;;;28.60;99.90;;;;;;4997827;28;20046;-80
2023/07/08 10:39:36;;;;;;;9.38;4.18;;;28.40;99.90;;;;;;4997006;28;20053;-80
2023/07/08 10:42:03;;;;;;;9.55;4.43;;;28.20;99.90;;;;;;4996988;28;20080;-80
2023/07/08 10:44:30;;;;;;;10.32;4.32;;;27.90;99.90;;;;;;4996909;28;20069;-79
2023/07/08 10:46:57;;;;;;;9.30;4.10;;;27.70;99.90;;;;;;4997610;28;20067;-81
2023/07/08 10:49:24;;;;;;;9.65;4.22;;;27.60;99.90;;;;;;4997963;28;20046;-81
2023/07/08 10:51:51;;;;;;;8.77;3.78;;;27.40;99.90;;;;;;4997143;28;20070;-78
2023/07/08 10:54:17;;;;;;;10.02;3.63;;;27.30;99.90;;;;;;4998115;28;20046;-81
2023/07/08 10:56:47;;;;;;;9.93;3.65;;;27.00;99.90;;;;;;4997284;28;20088;-79
2023/07/08 10:59:14;;;;;;;6.93;3.35;;;26.80;99.90;;;;;;4996728;28;20408;-78
2023/07/08 11:01:40;;;;;;;8.77;3.50;;;26.60;99.90;;;;;;4997399;28;20062;-80
2023/07/08 11:04:07;;;;;;;9.10;3.65;;;26.50;99.90;;;;;;4997807;28;20038;-78
2023/07/08 11:06:35;;;;;;;12.63;3.25;;;26.40;99.90;;;;;;5008232;28;20030;-77
2023/07/08 11:09:01;;;;;;;8.18;3.40;;;26.50;99.90;;;;;;5016929;28;20103;-78
2023/07/08 11:11:28;;;;;;;7.10;2.70;;;26.50;99.90;;;;;;5004465;28;20081;-79
2023/07/08 11:13:55;;;;;;;10.10;3.50;;;26.50;99.90;;;;;;5016513;28;20045;-78
2023/07/08 11:16:22;;;;;;;9.70;3.20;;;26.50;99.90;;;;;;5016475;28;20038;-77
2023/07/08 11:18:49;;;;;;;8.55;3.58;;;26.40;99.90;;;;;;5015937;28;20072;-78
2023/07/08 11:21:15;;;;;;;10.48;4.05;;;26.30;99.90;;;;;;5017157;28;20525;-77
2023/07/08 11:23:42;;;;;;;9.10;3.90;;;26.30;99.90;;;;;;5016451;28;20053;-78
2023/07/08 11:26:10;;;;;;;10.10;3.88;;;26.30;99.90;;;;;;5015773;28;20045;-78
2023/07/08 11:28:36;;;;;;;11.73;3.72;;;26.30;99.90;;;;;;5016133;28;20112;-78
2023/07/08 11:31:03;;;;;;;8.02;3.55;;;26.20;99.90;;;;;;5015992;28;20070;-78
2023/07/08 11:33:31;;;;;;;11.38;3.53;;;26.20;99.90;;;;;;5016757;28;20421;-78
2023/07/08 11:36:03;;;;;;;8.95;2.78;;;26.10;99.90;;;;;;5016744;28;20045;-78
2023/07/08 11:38:29;;;;;;;9.68;3.03;;;26.10;99.90;;;;;;5015236;28;20042;-78
2023/07/08 11:40:56;;;;;;;10.40;3.13;;;25.90;99.90;;;;;;5016532;28;20129;-77
2023/07/08 11:43:23;;;;;;;8.75;3.40;;;25.80;99.90;;;;;;5015289;28;20439;-78
2023/07/08 11:45:50;;;;;;;11.02;3.88;;;25.70;99.90;;;;;;5015286;28;20103;-78
2023/07/08 11:48:17;;;;;;;11.45;3.67;;;25.70;99.90;;;;;;5015771;28;20049;-78
2023/07/08 11:50:46;;;;;;;10.15;3.05;;;25.60;99.90;;;;;;5016124;28;20452;-77
2023/07/08 11:53:13;;;;;;;7.50;3.38;;;25.60;99.90;;;;;;5000612;28;20047;-77
2023/07/08 11:55:39;;;;;;;8.02;2.65;;;25.60;99.90;;;;;;4982815;28;20121;-79
2023/07/08 11:58:06;;;;;;;8.15;2.88;;;25.60;99.90;;;;;;4987264;28;20066;-79
2023/07/08 12:00:33;;;;;;;8.70;2.40;;;25.60;99.90;;;;;;4989043;28;20066;-78
2023/07/08 12:02:59;;;;;;;9.10;2.70;;;25.60;99.90;;;;;;4985290;28;20050;-79
2023/07/08 12:05:26;;;;;;;8.15;3.72;;;25.60;99.90;;;;;;4984983;28;20492;-78
2023/07/08 12:07:53;;;;;;;8.98;2.70;;;25.60;99.90;;;;;;4995254;28;20536;-77
2023/07/08 12:10:22;;;;;;;8.00;3.17;;;25.50;99.90;;;;;;4993817;28;20488;-79
2023/07/08 12:12:49;;;;;;;9.20;3.40;;;25.50;99.90;;;;;;4977299;28;20043;-79
2023/07/08 12:15:16;;;;;;;10.95;2.92;;;25.40;99.90;;;;;;4995017;28;20053;-78
2023/07/08 12:17:43;;;;;;;7.13;2.72;;;25.20;99.90;;;;;;4987849;28;20533;-76
2023/07/08 12:20:10;;;;;;;8.23;3.47;;;25.10;99.90;;;;;;4985943;28;20050;-76
2023/07/08 12:22:37;;;;;;;9.45;3.17;;;24.90;99.90;;;;;;4985968;28;20145;-79
2023/07/08 12:25:05;;;;;;;9.80;3.30;;;24.70;99.90;;;;;;4984704;28;20158;-80
2023/07/08 12:27:32;;;;;;;11.73;3.03;;;24.50;99.90;;;;;;4980113;28;20061;-80
2023/07/08 12:29:58;;;;;;;11.20;3.35;;;24.30;99.90;;;;;;4975099;28;20137;-79
2023/07/08 12:32:27;;;;;;;6.93;2.60;;;24.20;99.90;;;;;;4974383;28;20433;-78
2023/07/08 12:34:53;;;;;;;8.52;2.58;;;24.20;99.90;;;;;;4975729;28;20073;-76
2023/07/08 12:37:20;;;;;;;9.13;2.80;;;24.20;99.90;;;;;;4974758;28;20716;-77
2023/07/08 12:39:47;;;;;;;6.75;2.72;;;24.10;99.90;;;;;;4974545;28;20110;-77
2023/07/08 12:42:14;;;;;;;12.07;3.40;;;23.90;99.90;;;;;;4975149;28;20039;-79
2023/07/08 12:44:43;;;;;;;8.65;2.70;;;23.80;99.90;;;;;;4985199;28;20042;-79
2023/07/08 12:47:10;;;;;;;9.43;3.03;;;23.80;99.90;;;;;;4994242;28;20069;-78
2023/07/08 12:49:37;;;;;;;10.35;3.25;;;23.70;99.90;;;;;;4994567;28;20050;-78
2023/07/08 12:52:03;;;;;;;10.98;3.60;;;23.50;99.90;;;;;;4993561;28;20105;-79